Time;durP1;ratioP1;P1;durP2;ratioP2;P2;SDS_P1;SDS_P2;PMS_P1;PMS_P2;Temp;Humidity;BMP_temperature;BMP_pressure;BME280_temperature;BME280_humidity;BME280_pressure;Samples;Min_cycle;Max_cycle;Signal;HPM_P1;HPM_P2
2022/04/16 00:00:17;;;;;;;0.43;0.35;;;15.50;57.50;;;;;;5035050;28;20041;-71
2022/04/16 00:02:46;;;;;;;0.15;0.15;;;;;;;;;;5035405;28;20037;-70
2022/04/16 00:05:13;;;;;;;1.38;0.98;;;15.50;91.60;;;;;;5034926;28;20105;-70
2022/04/16 00:07:40;;;;;;;0.45;0.45;;;;;;;;;;5035828;28;20124;-70
2022/04/16 00:10:08;;;;;;;0.47;0.45;;;15.10;82.40;;;;;;5035374;28;20054;-70
2022/04/16 00:12:34;;;;;;;0.45;0.45;;;14.90;99.90;;;;;;5034637;28;20048;-70
2022/04/16 00:15:00;;;;;;;0.17;0.17;;;15.40;50.60;;;;;;5035343;28;20039;-71
2022/04/16 00:17:27;;;;;;;0.20;0.20;;;;;;;;;;5034507;28;20045;-71
2022/04/16 00:19:52;;;;;;;0.20;0.20;;;15.10;95.90;;;;;;5017518;28;20434;-71
2022/04/16 00:22:19;;;;;;;0.55;0.28;;;15.30;73.70;;;;;;5034387;28;20033;-71
2022/04/16 00:24:50;;;;;;;0.20;0.20;;;14.90;98.00;;;;;;5034599;28;20037;-70
2022/04/16 00:27:17;;;;;;;0.57;0.50;;;15.20;99.90;;;;;;5034366;28;20563;-71
2022/04/16 00:29:42;;;;;;;2.40;0.47;;;15.00;99.90;;;;;;5035158;28;20080;-70
2022/04/16 00:32:09;;;;;;;0.10;0.10;;;15.30;44.10;;;;;;5035078;28;20080;-71
2022/04/16 00:34:35;;;;;;;0.68;0.68;;;15.30;84.00;;;;;;5034566;28;20125;-71
2022/04/16 00:37:01;;;;;;;0.20;0.20;;;15.10;99.90;;;;;;5034835;28;20041;-71
2022/04/16 00:39:27;;;;;;;0.60;0.60;;;15.20;87.90;;;;;;5034750;28;20029;-71
2022/04/16 00:41:53;;;;;;;0.60;0.60;;;15.60;71.30;;;;;;5034747;28;20098;-70
2022/04/16 00:44:20;;;;;;;0.40;0.40;;;15.30;94.50;;;;;;5034457;28;20064;-71
2022/04/16 00:46:47;;;;;;;0.32;0.22;;;15.20;61.40;;;;;;5035393;28;20041;-70
2022/04/16 00:49:13;;;;;;;1.23;0.77;;;15.20;84.20;;;;;;5034689;28;20037;-70
2022/04/16 00:51:43;;;;;;;0.50;0.50;;;15.20;68.40;;;;;;5034622;28;20135;-71
2022/04/16 00:54:10;;;;;;;0.50;0.50;;;15.30;72.40;;;;;;5034582;28;20052;-70
2022/04/16 00:56:36;;;;;;;0.40;0.40;;;15.60;65.20;;;;;;5026585;28;20120;-71
2022/04/16 00:59:04;;;;;;;4.15;1.42;;;15.40;94.00;;;;;;5033131;28;20083;-71
2022/04/16 01:01:30;;;;;;;0.22;0.22;;;15.30;87.90;;;;;;5032936;28;20053;-70
2022/04/16 01:03:56;;;;;;;0.28;0.28;;;15.20;78.30;;;;;;5032655;28;20049;-70
2022/04/16 01:06:22;;;;;;;0.88;0.80;;;15.20;84.20;;;;;;5033920;28;20037;-71
2022/04/16 01:08:48;;;;;;;0.55;0.55;;;15.30;88.50;;;;;;5035106;28;20156;-71
2022/04/16 01:11:15;;;;;;;0.60;0.60;;;15.00;87.20;;;;;;5034258;28;20480;-71
2022/04/16 01:13:47;;;;;;;0.20;0.20;;;15.50;78.40;;;;;;5034493;28;20038;-71
2022/04/16 01:16:13;;;;;;;0.38;0.38;;;15.50;59.30;;;;;;5034344;28;20080;-71
2022/04/16 01:18:48;;;;;;;0.30;0.30;;;15.20;71.90;;;;;;5034220;28;20522;-71
2022/04/16 01:21:14;;;;;;;1.25;0.82;;;15.20;73.10;;;;;;5034367;28;20051;-71
2022/04/16 01:23:40;;;;;;;0.20;0.20;;;15.10;66.60;;;;;;5034378;28;20092;-71
2022/04/16 01:26:06;;;;;;;0.40;0.40;;;15.20;62.70;;;;;;5034353;28;20030;-71
2022/04/16 01:28:32;;;;;;;0.50;0.50;;;15.10;75.00;;;;;;5034878;28;20064;-71
2022/04/16 01:30:58;;;;;;;3.92;0.50;;;15.20;64.30;;;;;;5037447;28;20132;-71
2022/04/16 01:33:25;;;;;;;0.30;0.30;;;15.20;82.80;;;;;;5037785;28;20084;-70
2022/04/16 01:35:53;;;;;;;0.45;0.45;;;15.00;74.80;;;;;;5037422;28;20033;-70
2022/04/16 01:38:19;;;;;;;0.60;0.40;;;14.90;93.90;;;;;;5037498;28;20507;-70
2022/04/16 01:40:45;;;;;;;0.20;0.20;;;14.80;63.10;;;;;;5037636;28;20132;-71
2022/04/16 01:43:11;;;;;;;0.30;0.30;;;15.00;71.80;;;;;;5037443;28;20120;-70
2022/04/16 01:45:37;;;;;;;0.40;0.40;;;14.80;91.50;;;;;;5037266;28;20435;-71
2022/04/16 01:48:03;;;;;;;0.20;0.20;;;14.90;56.90;;;;;;5037634;28;20037;-70
2022/04/16 01:50:29;;;;;;;3.67;0.65;;;14.90;51.50;;;;;;5037151;28;20064;-71
2022/04/16 01:52:55;;;;;;;0.20;0.20;;;15.00;60.20;;;;;;5037414;28;20180;-70
2022/04/16 01:55:21;;;;;;;3.35;0.77;;;14.80;66.50;;;;;;5037112;28;20120;-70
2022/04/16 01:57:47;;;;;;;0.38;0.38;;;14.80;67.10;;;;;;5037168;28;20044;-71
2022/04/16 02:00:14;;;;;;;0.52;0.43;;;14.70;87.60;;;;;;5037341;28;20049;-70
2022/04/16 02:02:41;;;;;;;1.40;1.30;;;14.60;67.70;;;;;;5037388;28;20033;-70
2022/04/16 02:05:08;;;;;;;0.25;0.25;;;14.80;81.00;;;;;;5037260;28;20033;-71
2022/04/16 02:07:34;;;;;;;0.40;0.40;;;14.70;77.80;;;;;;5037050;28;20045;-71
2022/04/16 02:10:00;;;;;;;0.30;0.30;;;14.50;84.40;;;;;;5037591;28;20411;-71
2022/04/16 02:12:27;;;;;;;0.38;0.38;;;15.00;47.70;;;;;;5036573;28;20037;-71
2022/04/16 02:14:53;;;;;;;0.75;0.70;;;14.60;74.10;;;;;;5036956;28;20045;-71
2022/04/16 02:17:19;;;;;;;0.35;0.35;;;14.60;97.50;;;;;;5037085;28;20044;-71
2022/04/16 02:19:48;;;;;;;1.48;1.23;;;14.60;67.60;;;;;;5036956;28;20073;-71
2022/04/16 02:22:15;;;;;;;0.30;0.30;;;14.70;75.70;;;;;;5037109;28;20063;-71
2022/04/16 02:24:41;;;;;;;1.15;1.08;;;14.70;73.20;;;;;;5037386;28;20116;-71
2022/04/16 02:27:07;;;;;;;0.30;0.30;;;14.40;15.70;;;;;;5036414;28;20139;-71
2022/04/16 02:29:34;;;;;;;0.35;0.35;;;14.60;26.40;;;;;;5037033;28;20491;-71
2022/04/16 02:32:02;;;;;;;1.17;0.90;;;14.60;24.80;;;;;;5036901;28;20095;-71
2022/04/16 02:34:28;;;;;;;0.68;0.30;;;14.70;28.60;;;;;;5037524;28;20033;-71
2022/04/16 02:36:53;;;;;;;0.35;0.35;;;14.60;50.20;;;;;;5036864;28;20041;-71
2022/04/16 02:39:19;;;;;;;0.30;0.30;;;14.50;51.00;;;;;;5036424;28;20124;-71
2022/04/16 02:41:45;;;;;;;0.20;0.20;;;14.60;60.10;;;;;;5036647;28;20045;-71
2022/04/16 02:47:05;;;;;;;0.43;0.43;;;14.60;69.40;;;;;;5036758;28;20039;-70
2022/04/16 02:47:05;;;;;;;1.35;0.57;;;14.50;93.90;;;;;;5036275;28;20044;-70
2022/04/16 02:49:33;;;;;;;0.47;0.47;;;14.80;61.90;;;;;;5036908;28;20038;-70
2022/04/16 02:51:59;;;;;;;1.45;1.25;;;14.40;95.80;;;;;;5036254;28;20198;-70
2022/04/16 02:54:25;;;;;;;2.35;0.57;;;14.40;75.80;;;;;;5036855;28;20119;-70
2022/04/16 02:56:51;;;;;;;0.22;0.22;;;14.40;72.80;;;;;;5036294;28;20483;-70
2022/04/16 02:59:17;;;;;;;0.30;0.30;;;14.50;96.90;;;;;;5036194;28;20088;-70
2022/04/16 03:01:43;;;;;;;0.73;0.52;;;14.20;79.70;;;;;;5036441;28;20048;-70
2022/04/16 03:04:09;;;;;;;0.50;0.50;;;14.10;90.10;;;;;;5036651;28;20041;-70
2022/04/16 03:06:35;;;;;;;0.32;0.32;;;14.50;90.50;;;;;;5036729;28;20561;-70
2022/04/16 03:09:01;;;;;;;0.70;0.40;;;14.50;84.40;;;;;;5036322;28;20084;-71
2022/04/16 03:11:27;;;;;;;0.98;0.28;;;14.90;99.90;;;;;;5035669;28;20052;-71
2022/04/16 03:13:52;;;;;;;0.28;0.28;;;14.30;84.50;;;;;;5036199;28;20044;-71
2022/04/16 03:19:04;;;;;;;1.58;0.77;;;14.50;93.50;;;;;;5035636;28;20031;-71
2022/04/16 03:21:31;;;;;;;1.30;0.85;;;;;;;;;;5036014;28;20393;-71
2022/04/16 03:23:56;;;;;;;0.10;0.10;;;14.10;99.90;;;;;;5036012;28;20152;-70
2022/04/16 03:26:22;;;;;;;0.50;0.32;;;14.20;99.90;;;;;;5035765;28;20503;-70
2022/04/16 03:28:49;;;;;;;1.70;1.17;;;14.20;99.90;;;;;;5036009;28;20058;-70
2022/04/16 03:31:14;;;;;;;0.73;0.73;;;14.20;99.90;;;;;;5035787;28;20068;-70
2022/04/16 03:33:40;;;;;;;0.50;0.50;;;14.40;99.90;;;;;;5035541;28;20072;-71
2022/04/16 03:36:07;;;;;;;0.63;0.52;;;14.10;96.10;;;;;;5035756;28;20112;-71
2022/04/16 03:38:33;;;;;;;1.50;1.40;;;14.10;55.60;;;;;;5035394;28;20045;-71
2022/04/16 03:41:00;;;;;;;0.47;0.47;;;;;;;;;;5035582;28;20033;-70
2022/04/16 03:43:29;;;;;;;0.68;0.57;;;13.80;99.90;;;;;;5035484;28;20133;-71
2022/04/16 03:45:56;;;;;;;0.43;0.43;;;;;;;;;;5035514;28;20029;-70
2022/04/16 03:48:23;;;;;;;0.50;0.45;;;;;;;;;;5035406;28;20111;-70
2022/04/16 03:50:50;;;;;;;0.63;0.30;;;;;;;;;;5034391;28;20064;-70
2022/04/16 03:53:17;;;;;;;0.13;0.13;;;;;;;;;;5035202;28;20518;-70
2022/04/16 04:01:13;;;;;;;0.38;0.32;;;13.50;99.90;;;;;;5035148;28;20417;-70
2022/04/16 04:03:39;;;;;;;0.20;0.20;;;14.00;99.90;;;;;;5035026;28;20034;-70
2022/04/16 04:06:05;;;;;;;0.75;0.75;;;14.00;83.40;;;;;;5034996;28;20048;-70
2022/04/16 04:08:31;;;;;;;0.38;0.38;;;14.00;81.90;;;;;;5035031;28;20116;-71
2022/04/16 04:10:57;;;;;;;0.35;0.35;;;13.90;97.30;;;;;;5035708;28;20041;-70
2022/04/16 04:13:23;;;;;;;0.50;0.30;;;14.00;96.00;;;;;;5034717;28;20391;-71
2022/04/16 04:15:49;;;;;;;0.20;0.20;;;13.90;99.90;;;;;;5034853;28;20045;-70
2022/04/16 04:18:15;;;;;;;0.30;0.30;;;13.70;99.90;;;;;;5034973;28;20116;-70
2022/04/16 04:20:41;;;;;;;0.75;0.57;;;13.90;85.70;;;;;;5034728;28;20045;-70
2022/04/16 04:23:07;;;;;;;1.80;0.43;;;14.00;92.80;;;;;;5034726;28;20041;-71
2022/04/16 04:25:33;;;;;;;1.05;1.00;;;13.70;99.90;;;;;;5034602;28;20531;-70
2022/04/16 04:27:59;;;;;;;2.60;0.47;;;13.60;93.40;;;;;;5034811;28;20085;-70
2022/04/16 04:30:25;;;;;;;1.10;1.05;;;13.90;99.20;;;;;;5032994;28;20099;-70
2022/04/16 04:32:51;;;;;;;0.45;0.45;;;13.60;99.90;;;;;;5033138;28;20073;-70
2022/04/16 04:35:17;;;;;;;0.60;0.60;;;13.70;99.90;;;;;;5034226;28;20078;-71
2022/04/16 04:37:43;;;;;;;0.35;0.35;;;13.80;99.90;;;;;;5034482;28;20107;-71
2022/04/16 04:40:09;;;;;;;0.20;0.20;;;13.70;99.90;;;;;;5033645;28;20041;-71
2022/04/16 04:42:36;;;;;;;0.38;0.38;;;13.60;99.90;;;;;;5033959;28;20392;-71
2022/04/16 04:45:13;;;;;;;0.13;0.13;;;13.70;99.90;;;;;;5034185;28;20463;-71
2022/04/16 04:47:39;;;;;;;0.90;0.22;;;13.70;99.90;;;;;;5034530;28;20070;-71
2022/04/16 04:50:06;;;;;;;0.45;0.45;;;13.70;99.90;;;;;;5031894;28;20123;-71
2022/04/16 04:52:34;;;;;;;0.30;0.30;;;13.80;99.90;;;;;;5031615;28;20042;-71
2022/04/16 04:55:00;;;;;;;0.88;0.88;;;14.00;99.90;;;;;;5033344;28;20203;-71
2022/04/16 04:57:27;;;;;;;1.45;0.52;;;;;;;;;;5030531;28;20531;-71
2022/04/16 04:59:54;;;;;;;1.98;0.35;;;;;;;;;;5033942;28;20041;-71
2022/04/16 05:02:20;;;;;;;0.50;0.50;;;;;;;;;;5032535;28;20091;-71
2022/04/16 05:04:46;;;;;;;0.50;0.25;;;;;;;;;;5036950;28;20041;-71
2022/04/16 05:07:13;;;;;;;0.30;0.30;;;;;;;;;;5035723;28;20041;-71
2022/04/16 05:09:39;;;;;;;2.92;0.60;;;;;;;;;;5035643;28;20047;-71
2022/04/16 05:12:06;;;;;;;1.50;0.65;;;;;;;;;;5036524;28;20081;-71
2022/04/16 05:14:32;;;;;;;0.28;0.28;;;;;;;;;;5036181;28;20053;-71
2022/04/16 05:16:58;;;;;;;0.85;0.85;;;;;;;;;;5036762;28;20045;-71
2022/04/16 05:19:24;;;;;;;0.38;0.38;;;;;;;;;;5035200;28;20504;-71
2022/04/16 05:21:50;;;;;;;0.38;0.38;;;;;;;;;;5036152;28;20455;-71
2022/04/16 05:24:17;;;;;;;0.38;0.38;;;;;;;;;;5035289;28;20041;-71
2022/04/16 05:26:43;;;;;;;0.32;0.32;;;;;;;;;;5036943;28;20050;-71
2022/04/16 05:29:09;;;;;;;0.10;0.10;;;;;;;;;;5035247;28;20041;-71
2022/04/16 05:31:36;;;;;;;1.48;0.70;;;;;;;;;;5035889;28;20103;-71
2022/04/16 05:34:18;;;;;;;0.20;0.20;;;;;;;;;;5022060;28;20055;-71
2022/04/16 05:36:45;;;;;;;0.30;0.30;;;;;;;;;;5035137;28;20060;-71
2022/04/16 05:39:11;;;;;;;0.20;0.20;;;;;;;;;;5036189;28;20042;-71
2022/04/16 05:41:38;;;;;;;0.20;0.20;;;;;;;;;;5035549;28;20048;-71
2022/04/16 05:44:04;;;;;;;0.20;0.20;;;;;;;;;;5036374;28;20029;-71
2022/04/16 05:46:31;;;;;;;0.15;0.15;;;;;;;;;;5035979;28;20049;-71
2022/04/16 05:48:57;;;;;;;0.20;0.20;;;;;;;;;;5035852;28;20119;-71
2022/04/16 05:51:24;;;;;;;0.10;0.10;;;;;;;;;;5034013;28;20053;-71
2022/04/16 05:53:51;;;;;;;0.35;0.35;;;;;;;;;;5036268;28;20622;-71
2022/04/16 05:56:18;;;;;;;0.80;0.68;;;;;;;;;;5034841;28;20079;-71
2022/04/16 05:58:44;;;;;;;2.75;0.63;;;;;;;;;;5035797;28;20107;-71
2022/04/16 06:01:11;;;;;;;0.75;0.65;;;;;;;;;;5035273;28;20238;-71
2022/04/16 06:03:39;;;;;;;0.35;0.35;;;;;;;;;;5035610;28;20083;-71
2022/04/16 06:06:06;;;;;;;0.38;0.38;;;;;;;;;;5034072;28;20041;-71
2022/04/16 06:08:32;;;;;;;0.30;0.30;;;;;;;;;;5035817;28;20048;-71
2022/04/16 06:10:59;;;;;;;0.25;0.25;;;;;;;;;;5035240;28;20042;-71
2022/04/16 06:13:25;;;;;;;1.90;0.52;;;;;;;;;;5034239;28;20583;-71
2022/04/16 06:15:52;;;;;;;0.10;0.10;;;;;;;;;;5035723;28;20076;-71
2022/04/16 06:18:18;;;;;;;0.57;0.57;;;;;;;;;;5034533;28;20046;-71
2022/04/16 06:20:44;;;;;;;0.45;0.45;;;;;;;;;;5032898;28;20124;-71
2022/04/16 06:23:10;;;;;;;0.57;0.57;;;;;;;;;;5034236;28;20040;-71
2022/04/16 06:25:36;;;;;;;0.60;0.60;;;;;;;;;;5036364;28;20120;-71
2022/04/16 06:28:03;;;;;;;0.45;0.30;;;;;;;;;;5033854;28;20131;-71
2022/04/16 06:30:29;;;;;;;0.55;0.55;;;;;;;;;;5034106;28;20102;-71
2022/04/16 06:32:55;;;;;;;0.50;0.50;;;;;;;;;;5036048;28;20128;-71
2022/04/16 06:35:21;;;;;;;0.75;0.75;;;;;;;;;;5033731;28;20060;-71
2022/04/16 06:37:48;;;;;;;0.20;0.20;;;;;;;;;;5038984;28;20049;-71
2022/04/16 06:40:14;;;;;;;0.30;0.30;;;;;;;;;;5038596;28;20478;-71
2022/04/16 06:42:40;;;;;;;0.47;0.47;;;;;;;;;;5042543;28;20508;-71
2022/04/16 06:45:07;;;;;;;0.75;0.75;;;;;;;;;;5033417;28;20041;-71
2022/04/16 06:47:34;;;;;;;0.30;0.30;;;;;;;;;;5034247;28;20522;-71
2022/04/16 06:50:01;;;;;;;0.40;0.32;;;;;;;;;;5036155;28;20118;-71
2022/04/16 06:52:27;;;;;;;0.35;0.35;;;;;;;;;;5031186;28;20037;-71
2022/04/16 06:54:53;;;;;;;0.28;0.28;;;;;;;;;;5034227;28;20068;-71
2022/04/16 06:57:20;;;;;;;0.57;0.57;;;;;;;;;;5034715;28;20064;-71
2022/04/16 06:59:46;;;;;;;1.15;0.80;;;;;;;;;;5033322;28;20061;-71
2022/04/16 07:02:12;;;;;;;0.30;0.20;;;;;;;;;;5034257;28;20496;-71
2022/04/16 07:04:41;;;;;;;0.20;0.20;;;;;;;;;;5038089;28;20041;-69
2022/04/16 07:07:10;;;;;;;0.20;0.20;;;;;;;;;;5037345;28;20044;-71
2022/04/16 07:09:40;;;;;;;0.20;0.20;;;;;;;;;;5030319;28;20041;-71
2022/04/16 07:12:07;;;;;;;0.10;0.10;;;;;;;;;;5028971;28;20060;-71
2022/04/16 07:14:34;;;;;;;0.70;0.40;;;;;;;;;;5035532;28;20035;-71
2022/04/16 07:17:03;;;;;;;0.43;0.40;;;;;;;;;;5034984;28;20168;-71
2022/04/16 07:19:30;;;;;;;0.25;0.25;;;;;;;;;;5034880;28;20044;-72
2022/04/16 07:21:56;;;;;;;0.50;0.50;;;;;;;;;;5032243;28;20052;-72
2022/04/16 07:24:23;;;;;;;0.35;0.35;;;;;;;;;;5034152;28;20088;-72
2022/04/16 07:26:49;;;;;;;0.50;0.50;;;;;;;;;;5029979;28;20116;-72
2022/04/16 07:29:16;;;;;;;0.17;0.17;;;;;;;;;;5032595;28;20122;-71
2022/04/16 07:31:42;;;;;;;0.98;0.30;;;;;;;;;;5030239;28;20056;-71
2022/04/16 07:34:08;;;;;;;0.52;0.47;;;;;;;;;;5034879;28;20042;-71
2022/04/16 07:36:35;;;;;;;0.90;0.80;;;;;;;;;;5032596;28;20443;-72
2022/04/16 07:39:01;;;;;;;0.30;0.30;;;;;;;;;;5033089;28;20069;-71
2022/04/16 07:41:27;;;;;;;0.22;0.15;;;;;;;;;;5032801;28;20609;-71
2022/04/16 07:43:53;;;;;;;0.95;0.82;;;;;;;;;;5033524;28;20037;-75
2022/04/16 07:46:24;;;;;;;0.25;0.25;;;;;;;;;;5030604;28;20076;-71
2022/04/16 07:48:50;;;;;;;0.45;0.45;;;;;;;;;;5022551;28;20073;-72
2022/04/16 07:51:19;;;;;;;0.30;0.25;;;;;;;;;;5033747;28;20486;-73
2022/04/16 07:53:45;;;;;;;0.30;0.30;;;;;;;;;;5033272;28;20072;-72
2022/04/16 07:56:12;;;;;;;0.47;0.47;;;;;;;;;;5030507;28;20080;-73
2022/04/16 07:58:41;;;;;;;0.20;0.20;;;;;;;;;;5023446;28;20045;-73
2022/04/16 08:01:07;;;;;;;0.20;0.20;;;;;;;;;;5017149;28;20049;-72
2022/04/16 08:03:33;;;;;;;3.30;0.85;;;;;;;;;;5033762;28;20049;-73
2022/04/16 08:05:59;;;;;;;0.50;0.50;;;;;;;;;;5033950;28;20053;-72
2022/04/16 08:08:25;;;;;;;2.92;0.98;;;;;;;;;;5015634;28;20119;-72
2022/04/16 08:10:53;;;;;;;0.38;0.38;;;;;;;;;;5033637;28;20168;-72
2022/04/16 08:13:31;;;;;;;0.30;0.30;;;;;;;;;;5016712;28;20509;-73
2022/04/16 08:15:59;;;;;;;0.43;0.43;;;;;;;;;;5033003;28;20049;-70
2022/04/16 08:18:25;;;;;;;0.28;0.28;;;;;;;;;;5035096;28;20048;-72
2022/04/16 08:20:51;;;;;;;0.47;0.47;;;;;;;;;;5044362;28;20049;-71
2022/04/16 08:23:18;;;;;;;0.10;0.10;;;;;;;;;;5035944;28;20033;-73
2022/04/16 08:25:44;;;;;;;2.95;0.60;;;;;;;;;;5032523;28;20068;-70
2022/04/16 08:28:10;;;;;;;1.45;0.85;;;;;;;;;;5033268;28;20065;-75
2022/04/16 08:30:36;;;;;;;0.28;0.28;;;;;;;;;;5016645;28;20118;-71
2022/04/16 08:33:02;;;;;;;10.07;0.40;;;;;;;;;;5033655;28;20038;-71
2022/04/16 08:35:29;;;;;;;0.28;0.28;;;;;;;;;;5033621;28;20112;-70
2022/04/16 08:37:55;;;;;;;0.30;0.30;;;;;;;;;;5036830;28;20085;-71
2022/04/16 08:40:21;;;;;;;0.30;0.30;;;;;;;;;;5015880;28;20128;-71
2022/04/16 08:42:49;;;;;;;0.25;0.25;;;;;;;;;;5033655;28;20091;-71
2022/04/16 08:45:15;;;;;;;0.20;0.20;;;;;;;;;;5019204;28;20076;-71
2022/04/16 08:47:41;;;;;;;0.20;0.20;;;;;;;;;;5032022;28;20125;-71
2022/04/16 08:50:09;;;;;;;0.32;0.32;;;;;;;;;;5018468;28;20068;-71
2022/04/16 08:52:36;;;;;;;0.20;0.20;;;;;;;;;;5010786;28;20045;-71
2022/04/16 08:55:07;;;;;;;0.88;0.57;;;;;;;;;;5023586;28;20106;-71
2022/04/16 08:57:36;;;;;;;;;;;;;;;;;;5027062;28;20050;-71
2022/04/16 09:00:02;;;;;;;0.10;0.10;;;;;;;;;;5017369;28;20043;-71
2022/04/16 09:02:29;;;;;;;1.13;0.93;;;;;;;;;;5036299;28;20100;-71
2022/04/16 09:05:06;;;;;;;0.55;0.55;;;;;;;;;;5020804;28;20033;-75
2022/04/16 09:07:33;;;;;;;0.32;0.32;;;;;;;;;;5034085;28;20075;-73
2022/04/16 09:10:43;;;;;;;0.28;0.22;;;;;;;;;;5039886;28;20037;-71
2022/04/16 09:13:43;;;;;;;0.52;0.52;;;;;;;;;;4962942;28;20055;-71
2022/04/16 09:16:40;;;;;;;0.98;0.98;;;;;;;;;;4932808;28;20178;-76
2022/04/16 09:19:21;;;;;;;0.75;0.75;;;;;;;;;;4963855;28;20042;-71
2022/04/16 09:21:47;;;;;;;1.88;0.60;;;;;;;;;;5015739;28;20516;-72
2022/04/16 09:24:17;;;;;;;0.20;0.20;;;;;;;;;;5034834;28;20080;-71
2022/04/16 09:26:43;;;;;;;0.20;0.20;;;;;;;;;;5017443;28;20080;-72
2022/04/16 09:29:10;;;;;;;0.10;0.10;;;;;;;;;;5024393;28;20037;-72
2022/04/16 09:31:38;;;;;;;0.30;0.30;;;;;;;;;;5032059;28;20045;-72
2022/04/16 09:34:08;;;;;;;0.13;0.13;;;;;;;;;;5032539;28;20124;-72
2022/04/16 09:36:39;;;;;;;0.20;0.20;;;;;;;;;;5031324;28;20111;-71
2022/04/16 09:39:06;;;;;;;0.50;0.50;;;;;;;;;;5032337;28;20036;-71
2022/04/16 09:41:36;;;;;;;0.10;0.10;;;;;;;;;;5023040;28;20594;-72
2022/04/16 09:44:03;;;;;;;0.40;0.40;;;;;;;;;;5023547;28;20504;-72
2022/04/16 09:46:30;;;;;;;0.32;0.32;;;;;;;;;;5020490;28;20037;-72
2022/04/16 09:49:02;;;;;;;0.47;0.47;;;;;;;;;;5022139;28;20511;-72
2022/04/16 09:51:28;;;;;;;0.28;0.28;;;;;;;;;;5032770;28;20041;-72
2022/04/16 09:53:57;;;;;;;0.20;0.20;;;;;;;;;;5035707;28;20120;-72
2022/04/16 09:56:26;;;;;;;3.30;0.60;;;;;;;;;;5028396;28;20037;-70
2022/04/16 09:58:52;;;;;;;0.30;0.30;;;;;;;;;;5037141;28;20037;-70
2022/04/16 10:01:21;;;;;;;0.20;0.20;;;;;;;;;;5024204;28;20045;-71
2022/04/16 10:03:48;;;;;;;0.10;0.10;;;;;;;;;;5034403;28;20128;-71
2022/04/16 10:06:16;;;;;;;0.35;0.35;;;;;;;;;;5050450;28;20090;-70
2022/04/16 10:08:42;;;;;;;0.20;0.20;;;;;;;;;;5021988;28;20048;-70
2022/04/16 10:11:19;;;;;;;0.40;0.40;;;;;;;;;;5036102;28;20049;-70
2022/04/16 10:13:49;;;;;;;0.13;0.13;;;;;;;;;;5036523;28;20045;-70
2022/04/16 10:16:22;;;;;;;0.40;0.40;;;;;;;;;;5035540;28;20069;-71
2022/04/16 10:18:49;;;;;;;0.47;0.47;;;;;;;;;;5035915;28;20531;-71
2022/04/16 10:21:16;;;;;;;1.98;0.55;;;;;;;;;;5036622;28;20095;-71
2022/04/16 10:23:42;;;;;;;0.22;0.22;;;;;;;;;;5017056;28;20068;-72
2022/04/16 10:26:10;;;;;;;0.80;0.80;;;;;;;;;;5053830;28;20043;-71
2022/04/16 10:28:38;;;;;;;1.85;0.85;;;;;;;;;;5056280;28;20056;-71
2022/04/16 10:31:05;;;;;;;0.90;0.30;;;;;;;;;;5056040;28;20068;-71
2022/04/16 10:33:32;;;;;;;0.30;0.30;;;;;;;;;;5056336;28;20078;-71
2022/04/16 10:36:03;;;;;;;0.20;0.20;;;;;;;;;;5056500;28;20087;-71
2022/04/16 10:38:37;;;;;;;0.57;0.57;;;;;;;;;;5056064;28;20041;-72
2022/04/16 10:41:13;;;;;;;0.68;0.68;;;;;;;;;;5039718;28;20045;-72
2022/04/16 10:43:39;;;;;;;0.50;0.50;;;;;;;;;;5036318;28;20116;-72
2022/04/16 10:46:06;;;;;;;0.28;0.28;;;;;;;;;;5036199;28;20120;-72
2022/04/16 10:48:34;;;;;;;0.35;0.35;;;;;;;;;;5036228;28;20514;-72
2022/04/16 10:51:00;;;;;;;1.40;0.93;;;;;;;;;;5036258;28;20180;-72
2022/04/16 10:53:32;;;;;;;0.30;0.30;;;;;;;;;;5035979;28;20060;-71
2022/04/16 10:56:07;;;;;;;0.20;0.20;;;;;;;;;;5044485;28;20037;-71
2022/04/16 10:58:33;;;;;;;0.55;0.55;;;;;;;;;;5050710;28;20042;-69
2022/04/16 11:01:07;;;;;;;0.20;0.20;;;;;;;;;;5047236;28;20123;-69
2022/04/16 11:03:36;;;;;;;0.50;0.50;;;;;;;;;;5046346;28;20033;-69
2022/04/16 11:06:05;;;;;;;0.22;0.22;;;;;;;;;;5054962;28;20052;-70
2022/04/16 11:08:35;;;;;;;0.35;0.35;;;;;;;;;;5055402;28;20041;-70
2022/04/16 11:11:04;;;;;;;0.60;0.60;;;;;;;;;;5055393;28;20045;-70
2022/04/16 11:13:31;;;;;;;0.35;0.35;;;;;;;;;;5055496;28;20128;-70
2022/04/16 11:15:58;;;;;;;0.20;0.20;;;;;;;;;;5055474;28;20041;-70
2022/04/16 11:18:26;;;;;;;0.70;0.70;;;;;;;;;;5055333;28;20048;-70
2022/04/16 11:20:58;;;;;;;0.47;0.47;;;;;;;;;;5055617;28;20041;-70
2022/04/16 11:23:27;;;;;;;0.22;0.22;;;;;;;;;;5055406;28;20128;-70
2022/04/16 11:34:20;;;;;;;0.45;0.45;;;;;;;;;;5055894;28;20434;-70
2022/04/16 11:36:50;;;;;;;0.40;0.40;;;;;;;;;;5055729;28;20048;-70
2022/04/16 11:39:20;;;;;;;0.65;0.65;;;;;;;;;;5056218;28;20040;-70
2022/04/16 11:41:50;;;;;;;0.47;0.47;;;;;;;;;;5037623;28;20403;-70
2022/04/16 11:44:16;;;;;;;0.40;0.40;;;;;;;;;;5055959;28;20488;-70
2022/04/16 11:46:43;;;;;;;2.20;0.90;;;;;;;;;;5055826;28;20045;-70
2022/04/16 11:49:11;;;;;;;0.47;0.47;;;;;;;;;;5055553;28;20056;-70
2022/04/16 11:51:38;;;;;;;0.50;0.50;;;;;;;;;;5037997;28;20094;-70
2022/04/16 11:54:06;;;;;;;0.32;0.32;;;;;;;;;;5055406;28;20060;-70
2022/04/16 11:56:32;;;;;;;0.47;0.47;;;;;;;;;;5055057;28;20053;-70
2022/04/16 11:58:58;;;;;;;0.20;0.20;;;;;;;;;;5055612;28;20083;-70
2022/04/16 12:01:24;;;;;;;0.55;0.55;;;;;;;;;;5055221;28;20503;-70
2022/04/16 12:03:57;;;;;;;0.80;0.80;;;;;;;;;;5055231;28;20048;-70
2022/04/16 12:06:24;;;;;;;0.30;0.30;;;;;;;;;;5055737;28;20112;-70
2022/04/16 12:08:51;;;;;;;0.20;0.20;;;;;;;;;;5055620;28;20138;-70
2022/04/16 12:11:20;;;;;;;0.20;0.20;;;;;;;;;;5054655;28;20086;-70
2022/04/16 12:13:51;;;;;;;0.50;0.50;;;;;;;;;;5055062;28;20041;-70
2022/04/16 12:16:17;;;;;;;;;;;;;;;;;;5055599;28;20488;-70
2022/04/16 12:18:46;;;;;;;0.17;0.17;;;;;;;;;;5054426;28;19958;-70
2022/04/16 12:21:13;;;;;;;0.20;0.20;;;;;;;;;;5055013;28;20044;-70
2022/04/16 12:23:40;;;;;;;0.50;0.50;;;;;;;;;;5054700;28;20033;-70
2022/04/16 12:26:11;;;;;;;0.32;0.32;;;;;;;;;;5054852;28;20093;-70
2022/04/16 12:28:38;;;;;;;0.40;0.40;;;;;;;;;;5055265;28;20106;-70
2022/04/16 12:31:04;;;;;;;0.30;0.30;;;;;;;;;;5054398;28;20565;-70
2022/04/16 12:33:32;;;;;;;0.30;0.30;;;;;;;;;;5054168;28;20061;-70
2022/04/16 12:35:59;;;;;;;0.20;0.20;;;;;;;;;;5055094;28;20056;-70
2022/04/16 12:38:25;;;;;;;0.55;0.52;;;;;;;;;;5054333;28;20048;-70
2022/04/16 12:40:53;;;;;;;4.28;0.82;;;;;;;;;;5054397;28;20052;-70
2022/04/16 12:43:19;;;;;;;0.65;0.22;;;;;;;;;;5054164;28;20048;-70
2022/04/16 12:45:45;;;;;;;0.40;0.40;;;;;;;;;;5054052;28;20033;-70
2022/04/16 12:48:11;;;;;;;0.25;0.25;;;;;;;;;;5053733;28;20045;-70
2022/04/16 12:50:37;;;;;;;0.38;0.38;;;;;;;;;;5054161;28;20128;-70
2022/04/16 12:53:06;;;;;;;0.50;0.50;;;;;;;;;;5054164;28;20568;-70
2022/04/16 12:55:33;;;;;;;0.45;0.45;;;;;;;;;;5054406;28;20060;-70
2022/04/16 12:58:00;;;;;;;1.02;0.57;;;;;;;;;;5054312;28;20050;-70
2022/04/16 13:00:26;;;;;;;1.00;0.47;;;;;;;;;;5054258;28;20118;-70
2022/04/16 13:02:52;;;;;;;0.40;0.40;;;;;;;;;;5054242;28;20045;-70
2022/04/16 13:05:19;;;;;;;0.40;0.40;;;;;;;;;;5054136;28;20519;-70
2022/04/16 13:07:46;;;;;;;0.20;0.20;;;;;;;;;;5054458;28;20045;-70
2022/04/16 13:10:13;;;;;;;2.00;0.82;;;;;;;;;;5053759;28;20037;-70
2022/04/16 13:12:40;;;;;;;0.13;0.13;;;;;;;;;;5053853;28;20106;-70
2022/04/16 13:15:07;;;;;;;0.80;0.50;;;;;;;;;;5054704;28;20037;-70
2022/04/16 13:17:33;;;;;;;0.52;0.52;;;;;;;;;;5054030;28;20047;-70
2022/04/16 13:19:59;;;;;;;0.55;0.55;;;;;;;;;;5053898;28;20036;-70
2022/04/16 13:22:26;;;;;;;0.40;0.40;;;;;;;;;;5053802;28;20052;-70
2022/04/16 13:24:53;;;;;;;0.57;0.57;;;;;;;;;;5057695;28;20514;-70
2022/04/16 13:27:19;;;;;;;0.32;0.32;;;;;;;;;;5057645;28;20131;-70
2022/04/16 13:29:45;;;;;;;0.28;0.28;;;;;;;;;;5058460;28;20053;-70
2022/04/16 13:32:11;;;;;;;0.28;0.28;;;;;;;;;;5057472;28;20048;-70
2022/04/16 13:34:39;;;;;;;0.30;0.30;;;;;;;;;;5057556;28;20400;-70
2022/04/16 13:37:06;;;;;;;0.25;0.25;;;;;;;;;;5057402;28;20037;-70
2022/04/16 13:42:21;;;;;;;0.25;0.25;;;;;;;;;;5010282;28;20048;-70
2022/04/16 13:44:48;;;;;;;0.20;0.20;;;;;;;;;;5057564;28;20033;-70
2022/04/16 13:47:15;;;;;;;0.55;0.40;;;;;;;;;;5057968;28;20045;-70
2022/04/16 13:49:41;;;;;;;0.60;0.32;;;;;;;;;;5057224;28;20370;-70
2022/04/16 13:52:08;;;;;;;2.55;0.93;;;;;;;;;;5057104;28;20119;-70
2022/04/16 13:54:34;;;;;;;4.72;0.38;;;;;;;;;;5057154;28;20067;-70
2022/04/16 13:57:00;;;;;;;0.57;0.57;;;;;;;;;;5057349;28;20051;-70
2022/04/16 13:59:26;;;;;;;0.40;0.40;;;;;;;;;;5057347;28;20041;-70
2022/04/16 14:01:52;;;;;;;0.20;0.20;;;;;;;;;;5057382;28;20075;-70
2022/04/16 14:04:18;;;;;;;0.17;0.17;;;;;;;;;;5056949;28;20495;-70
2022/04/16 14:06:45;;;;;;;0.20;0.20;;;;;;;;;;5057698;28;20095;-70
2022/04/16 14:09:11;;;;;;;0.47;0.47;;;;;;;;;;5057073;28;20045;-70
2022/04/16 14:11:38;;;;;;;0.30;0.30;;;;;;;;;;5057255;28;20099;-70
2022/04/16 14:14:04;;;;;;;0.73;0.73;;;;;;;;;;5057103;28;20048;-70
2022/04/16 14:16:30;;;;;;;0.43;0.40;;;;;;;;;;5057330;28;20077;-70
2022/04/16 14:18:56;;;;;;;0.20;0.20;;;;;;;;;;5056737;28;20491;-70
2022/04/16 14:21:23;;;;;;;0.40;0.40;;;;;;;;;;5057193;28;20045;-70
2022/04/16 14:23:49;;;;;;;0.30;0.30;;;;;;;;;;5056915;28;20138;-70